Time;durP1;ratioP1;P1;durP2;ratioP2;P2;SDS_P1;SDS_P2;PMS_P1;PMS_P2;Temp;Humidity;BMP_temperature;BMP_pressure;BME280_temperature;BME280_humidity;BME280_pressure;Samples;Min_cycle;Max_cycle;Signal;HPM_P1;HPM_P2
2022/03/06 00:01:19;;;;;;;5.03;2.42;;;;;;;-0.43;89.20;102517.63;4931479;29;20039;-78
2022/03/06 00:03:45;;;;;;;7.60;3.13;;;;;;;-0.34;89.32;102526.03;4902253;29;20035;-77
2022/03/06 00:06:13;;;;;;;8.35;2.80;;;;;;;-0.36;89.08;102520.06;4937097;28;20056;-77
2022/03/06 00:08:40;;;;;;;7.20;2.75;;;;;;;-0.32;89.37;102522.56;4949584;28;20071;-78
2022/03/06 00:11:06;;;;;;;6.95;2.90;;;;;;;-0.26;88.54;102527.56;4925506;29;20099;-79
2022/03/06 00:13:33;;;;;;;8.63;3.10;;;;;;;-0.37;88.36;102519.22;4936820;29;20098;-78
2022/03/06 00:15:59;;;;;;;8.25;3.58;;;;;;;-0.41;89.29;102527.91;4953602;28;20040;-77
2022/03/06 00:18:25;;;;;;;7.90;2.60;;;;;;;-0.54;89.61;102517.00;4954030;29;20272;-77
2022/03/06 00:20:52;;;;;;;6.32;3.05;;;;;;;-0.49;89.26;102529.78;4934302;29;20060;-77
2022/03/06 00:23:17;;;;;;;7.13;3.28;;;;;;;-0.54;89.63;102529.03;4936060;29;20062;-78
2022/03/06 00:25:43;;;;;;;6.50;2.70;;;;;;;-0.57;89.67;102517.03;4949393;29;20031;-77
2022/03/06 00:28:09;;;;;;;7.03;3.00;;;;;;;-0.47;89.00;102533.16;4949432;28;20422;-78
2022/03/06 00:30:34;;;;;;;5.68;2.72;;;;;;;-0.52;89.26;102528.13;4923147;29;20035;-79
2022/03/06 00:33:06;;;;;;;6.95;2.67;;;;;;;-0.64;89.65;102518.91;4922956;29;20035;-75
2022/03/06 00:35:33;;;;;;;6.47;2.67;;;;;;;-0.58;89.22;102520.50;4946684;28;20035;-78
2022/03/06 00:37:59;;;;;;;4.22;2.28;;;;;;;-0.58;90.05;102523.09;4924133;29;20509;-78
2022/03/06 00:40:25;;;;;;;7.85;2.30;;;;;;;-0.45;88.50;102523.69;4939168;29;20035;-78
2022/03/06 00:42:51;;;;;;;6.55;3.30;;;;;;;-0.45;89.83;102524.53;4923682;29;20059;-79
2022/03/06 00:45:19;;;;;;;6.03;2.38;;;;;;;-0.66;89.31;102509.50;4939182;29;20335;-78
2022/03/06 00:47:44;;;;;;;7.40;2.47;;;;;;;-0.63;88.59;102507.72;4924229;29;20046;-79
2022/03/06 00:50:11;;;;;;;5.25;2.63;;;;;;;-0.58;88.50;102523.09;4942316;28;20044;-79
2022/03/06 00:52:39;;;;;;;4.95;2.35;;;;;;;-0.71;88.38;102498.44;4931515;28;20103;-79
2022/03/06 00:55:06;;;;;;;4.28;2.03;;;;;;;-0.66;88.96;102515.53;4935540;29;20389;-80
2022/03/06 00:57:32;;;;;;;3.55;2.38;;;;;;;-0.74;89.31;102517.38;4940209;29;20036;-79
2022/03/06 00:59:58;;;;;;;5.68;2.35;;;;;;;-0.71;89.14;102525.06;4942078;29;20048;-79
2022/03/06 01:02:26;;;;;;;9.23;2.75;;;;;;;-0.86;90.14;102510.75;4932296;28;20116;-80
2022/03/06 01:04:52;;;;;;;6.47;2.35;;;;;;;-0.77;91.24;102525.19;4922786;29;20044;-79
2022/03/06 01:07:18;;;;;;;6.82;2.35;;;;;;;-0.94;91.73;102497.16;4943687;29;20054;-79
2022/03/06 01:09:44;;;;;;;7.18;2.83;;;;;;;-0.88;91.79;102506.50;4959082;28;20106;-78
2022/03/06 01:12:12;;;;;;;5.72;2.55;;;;;;;-0.70;91.41;102525.91;4921649;29;20047;-79
2022/03/06 01:14:38;;;;;;;7.47;3.08;;;;;;;-0.70;91.57;102546.53;4921262;29;20063;-78
2022/03/06 01:17:04;;;;;;;6.40;2.83;;;;;;;-1.00;91.69;102487.84;4945504;29;20505;-79
2022/03/06 01:19:31;;;;;;;4.97;2.90;;;;;;;-0.79;92.12;102514.91;4919155;29;20750;-80
2022/03/06 01:21:57;;;;;;;6.38;2.47;;;;;;;-0.86;91.99;102505.59;4924111;29;20047;-78
2022/03/06 01:24:23;;;;;;;7.03;2.85;;;;;;;-0.75;92.90;102531.16;4936444;29;20040;-80
2022/03/06 01:26:48;;;;;;;6.40;2.92;;;;;;;-0.74;93.08;102537.16;4936095;29;20063;-80
2022/03/06 01:29:14;;;;;;;13.02;2.70;;;;;;;-0.69;93.29;102538.75;4932042;29;20035;-81
2022/03/06 01:31:40;;;;;;;5.82;2.90;;;;;;;-0.70;93.56;102537.06;4932469;29;20034;-80
2022/03/06 01:34:06;;;;;;;6.25;3.13;;;;;;;-0.72;93.69;102538.81;4915338;29;20089;-80
2022/03/06 01:36:31;;;;;;;7.68;3.00;;;;;;;-0.70;93.90;102542.22;4931822;29;20047;-81
2022/03/06 01:38:57;;;;;;;6.97;3.20;;;;;;;-0.74;94.96;102544.88;4948198;28;20401;-80
2022/03/06 01:41:23;;;;;;;7.18;2.90;;;;;;;-0.77;94.52;102540.66;4904594;29;20130;-81
2022/03/06 01:43:49;;;;;;;7.40;3.35;;;;;;;-0.80;94.88;102540.69;4932249;29;20584;-80
2022/03/06 01:46:14;;;;;;;5.78;2.67;;;;;;;-0.80;95.25;102543.28;4947353;29;20039;-80
2022/03/06 01:48:40;;;;;;;6.35;2.88;;;;;;;-0.81;95.21;102533.81;4910471;29;20538;-79
2022/03/06 01:51:06;;;;;;;8.27;3.10;;;;;;;-0.81;95.78;102537.28;4936899;29;20053;-79
2022/03/06 01:53:31;;;;;;;7.30;3.42;;;;;;;-0.86;96.01;102530.50;4932861;29;20036;-80
2022/03/06 01:55:57;;;;;;;6.03;3.13;;;;;;;-0.96;96.65;102535.00;4919344;29;20035;-79
2022/03/06 01:58:22;;;;;;;6.82;2.90;;;;;;;-0.98;96.72;102529.88;4932763;29;20443;-79
2022/03/06 02:00:49;;;;;;;5.38;3.20;;;;;;;-0.97;97.21;102541.00;4922308;28;20051;-79
2022/03/06 02:03:17;;;;;;;7.22;3.88;;;;;;;-0.95;96.83;102533.25;4914732;29;20046;-79
2022/03/06 02:05:43;;;;;;;9.43;3.55;;;;;;;-0.96;97.00;102537.56;4932378;29;20446;-80
2022/03/06 02:08:09;;;;;;;10.20;3.50;;;;;;;-0.94;97.83;102532.38;4946279;28;20043;-80
2022/03/06 02:10:35;;;;;;;10.32;3.85;;;;;;;-0.99;98.28;102530.72;4914668;29;20043;-80
2022/03/06 02:13:01;;;;;;;6.90;3.55;;;;;;;-0.99;98.35;102535.03;4929912;29;20135;-81
2022/03/06 02:15:27;;;;;;;9.45;3.53;;;;;;;-0.96;97.60;102523.81;4931323;29;20789;-79
2022/03/06 02:17:52;;;;;;;6.70;3.28;;;;;;;-0.89;97.45;102530.56;4928603;29;20050;-79
2022/03/06 02:20:21;;;;;;;8.30;3.80;;;;;;;-0.96;98.29;102526.41;4921428;29;20451;-80
2022/03/06 02:22:55;;;;;;;6.53;3.25;;;;;;;-1.03;98.95;102517.94;4933344;29;20024;-78
2022/03/06 02:25:30;;;;;;;10.70;3.92;;;;;;;-1.02;99.09;102519.63;4899991;29;20063;-80
2022/03/06 02:27:57;;;;;;;7.70;3.50;;;;;;;-1.14;98.75;102501.84;4927446;29;20032;-80
2022/03/06 02:30:26;;;;;;;8.68;3.45;;;;;;;-1.09;98.67;102510.31;4933588;29;20043;-78
2022/03/06 02:32:52;;;;;;;7.50;4.20;;;;;;;-1.10;99.24;102511.19;4930005;29;20063;-79
2022/03/06 02:35:19;;;;;;;9.02;3.67;;;;;;;-1.09;99.46;102520.63;4930046;29;20032;-78
2022/03/06 02:37:45;;;;;;;8.15;3.80;;;;;;;-1.08;99.85;102522.31;4929651;28;20091;-78
2022/03/06 02:40:13;;;;;;;6.53;4.00;;;;;;;-1.07;100.00;102517.16;4914374;29;20051;-78
2022/03/06 02:42:42;;;;;;;6.53;3.65;;;;;;;-1.10;100.00;102516.34;4914417;29;20721;-79
2022/03/06 02:45:14;;;;;;;6.60;3.70;;;;;;;-1.09;100.00;102518.03;4914337;29;20059;-78
2022/03/06 02:47:42;;;;;;;6.82;4.05;;;;;;;-1.13;99.96;102517.28;4947081;29;20032;-79
2022/03/06 02:50:10;;;;;;;8.13;3.50;;;;;;;-1.19;100.00;102507.06;4947508;28;20046;-79
2022/03/06 02:52:36;;;;;;;6.15;3.88;;;;;;;-1.15;100.00;102513.00;4920749;29;20040;-79
2022/03/06 02:55:03;;;;;;;10.85;3.88;;;;;;;-1.15;100.00;102518.16;4928226;29;20054;-78
2022/03/06 02:57:29;;;;;;;10.07;4.05;;;;;;;-1.19;100.00;102507.06;4934177;29;20069;-79
2022/03/06 02:59:55;;;;;;;7.28;3.60;;;;;;;-1.24;100.00;102494.28;4923265;29;20185;-80
2022/03/06 03:02:20;;;;;;;12.38;3.67;;;;;;;-1.20;100.00;102495.91;4934250;28;20509;-80
2022/03/06 03:04:46;;;;;;;6.95;3.95;;;;;;;-1.24;100.00;102486.56;4933649;29;20039;-80
2022/03/06 03:07:12;;;;;;;12.90;4.35;;;;;;;-1.28;100.00;102502.94;4910957;28;20060;-81
2022/03/06 03:09:37;;;;;;;6.55;3.58;;;;;;;-1.26;100.00;102492.59;4950926;29;20164;-79
2022/03/06 03:12:04;;;;;;;7.85;3.50;;;;;;;-1.21;100.00;102507.09;4932418;29;20043;-78
2022/03/06 03:14:33;;;;;;;7.72;3.85;;;;;;;-1.23;100.00;102501.09;4937423;29;20541;-80
2022/03/06 03:17:05;;;;;;;7.22;3.85;;;;;;;-1.22;100.00;102507.13;4956359;28;20040;-79
2022/03/06 03:19:31;;;;;;;9.27;3.58;;;;;;;-1.40;100.00;102479.97;4927956;29;20031;-81
2022/03/06 03:21:57;;;;;;;7.47;3.67;;;;;;;-1.28;100.00;102502.94;4948448;29;20040;-80
2022/03/06 03:24:24;;;;;;;7.80;3.67;;;;;;;-1.25;100.00;102508.00;4926830;29;20118;-80
2022/03/06 03:26:51;;;;;;;9.00;3.95;;;;;;;-1.22;100.00;102505.41;4951397;29;20028;-80
2022/03/06 03:29:16;;;;;;;11.52;3.88;;;;;;;-1.25;99.91;102487.41;4942182;29;20074;-80
2022/03/06 03:31:42;;;;;;;7.68;3.72;;;;;;;-1.12;99.98;102513.81;4933778;29;20067;-79
2022/03/06 03:34:08;;;;;;;8.15;3.75;;;;;;;-1.09;100.00;102518.91;4917741;29;20059;-78
2022/03/06 03:36:33;;;;;;;9.32;4.47;;;;;;;-1.14;100.00;102514.72;4931627;29;20047;-80
2022/03/06 03:38:59;;;;;;;10.02;3.67;;;;;;;-1.15;100.00;102506.13;4950360;29;20146;-79
2022/03/06 03:41:24;;;;;;;9.00;4.63;;;;;;;-1.20;100.00;102515.69;4933957;29;20035;-79
2022/03/06 03:43:53;;;;;;;12.77;4.25;;;;;;;-1.26;100.00;102516.63;4933612;29;20498;-79
2022/03/06 03:46:19;;;;;;;7.47;3.30;;;;;;;-1.23;100.00;102523.44;4918622;29;20032;-79
2022/03/06 03:48:45;;;;;;;8.52;4.05;;;;;;;-1.22;100.00;102528.56;4931719;29;20043;-79
2022/03/06 03:51:11;;;;;;;8.05;3.53;;;;;;;-1.22;100.00;102520.84;4932735;29;20410;-80
2022/03/06 03:53:37;;;;;;;6.32;3.60;;;;;;;-1.19;100.00;102520.81;4934461;29;20036;-81
2022/03/06 03:56:04;;;;;;;9.20;3.70;;;;;;;-1.26;99.58;102513.19;4934727;29;20055;-79
2022/03/06 03:58:30;;;;;;;7.03;3.80;;;;;;;-1.16;99.61;102526.78;4933138;29;20676;-79
2022/03/06 04:00:56;;;;;;;10.95;3.85;;;;;;;-1.22;99.38;102522.59;4934528;29;20036;-80
2022/03/06 04:03:22;;;;;;;5.05;3.33;;;;;;;-1.21;99.81;102534.56;4950545;29;20435;-80
2022/03/06 04:05:48;;;;;;;6.22;3.40;;;;;;;-1.24;99.71;102527.75;4936542;29;20556;-81
2022/03/06 04:08:14;;;;;;;10.10;3.90;;;;;;;-1.21;99.45;102540.56;4951396;29;20031;-81
2022/03/06 04:10:40;;;;;;;7.47;3.45;;;;;;;-1.20;99.53;102531.13;4935454;29;20035;-80
2022/03/06 04:13:05;;;;;;;8.57;4.00;;;;;;;-1.21;99.48;102527.69;4937463;29;20089;-80
2022/03/06 04:15:31;;;;;;;6.75;3.60;;;;;;;-1.23;99.30;102524.28;4920289;29;20063;-79
2022/03/06 04:17:57;;;;;;;10.18;3.85;;;;;;;-1.14;99.84;102519.88;4954082;28;20536;-80
2022/03/06 04:20:23;;;;;;;6.82;3.63;;;;;;;-1.15;99.27;102524.16;4936339;29;20499;-79
2022/03/06 04:22:48;;;;;;;7.05;3.70;;;;;;;-1.23;98.65;102519.13;4915784;29;20043;-79
2022/03/06 04:25:14;;;;;;;5.60;3.38;;;;;;;-1.21;99.80;102525.09;4917411;29;20039;-80
2022/03/06 04:27:40;;;;;;;7.63;3.50;;;;;;;-1.21;99.70;102524.25;4932070;29;20032;-80
2022/03/06 04:30:06;;;;;;;7.88;3.78;;;;;;;-1.13;99.16;102537.00;4932754;29;20676;-80
2022/03/06 04:32:32;;;;;;;5.05;3.33;;;;;;;-1.12;98.58;102525.84;4917592;29;20668;-80
2022/03/06 04:34:58;;;;;;;8.20;3.60;;;;;;;-1.12;99.54;102526.69;4930442;29;20131;-80
2022/03/06 04:37:24;;;;;;;11.15;3.63;;;;;;;-1.16;99.93;102525.03;4918106;29;20410;-81
2022/03/06 04:39:49;;;;;;;6.10;3.40;;;;;;;-1.16;98.87;102529.34;4908972;29;20050;-82
2022/03/06 04:42:15;;;;;;;6.05;2.90;;;;;;;-1.15;98.98;102529.28;4934076;29;20440;-81
2022/03/06 04:44:41;;;;;;;9.55;3.53;;;;;;;-1.08;98.64;102546.34;4941291;29;20040;-80
2022/03/06 04:47:07;;;;;;;5.55;2.90;;;;;;;-1.15;98.58;102536.19;4900642;29;20126;-81
2022/03/06 04:49:33;;;;;;;7.57;3.25;;;;;;;-1.08;99.27;102540.34;4934045;29;20126;-79
2022/03/06 04:51:58;;;;;;;6.88;2.70;;;;;;;-1.05;98.17;102545.47;4934219;28;20046;-80
2022/03/06 04:54:25;;;;;;;6.07;2.67;;;;;;;-1.09;98.64;102547.25;4931533;29;20394;-79
2022/03/06 04:56:51;;;;;;;7.72;2.80;;;;;;;-1.07;97.61;102544.63;4931347;29;20134;-79
2022/03/06 04:59:17;;;;;;;4.28;2.33;;;;;;;-1.18;98.07;102534.53;4933721;29;20087;-80
2022/03/06 05:01:42;;;;;;;5.75;2.75;;;;;;;-1.15;98.28;102544.75;4915566;29;20122;-79
2022/03/06 05:04:09;;;;;;;7.78;3.00;;;;;;;-1.15;98.01;102538.75;4932766;29;20075;-79
2022/03/06 05:06:35;;;;;;;5.97;2.50;;;;;;;-1.13;98.62;102550.75;4932714;29;20542;-79
2022/03/06 05:09:00;;;;;;;5.97;2.70;;;;;;;-1.14;98.94;102548.19;4933528;29;20050;-78
2022/03/06 05:11:26;;;;;;;5.35;2.67;;;;;;;-1.22;98.74;102550.91;4948895;29;20046;-79
2022/03/06 05:13:52;;;;;;;7.57;2.40;;;;;;;-1.12;97.59;102554.16;4914754;29;20265;-79
2022/03/06 05:16:17;;;;;;;6.35;2.70;;;;;;;-1.15;98.27;102560.19;4932030;29;20113;-79
2022/03/06 05:18:43;;;;;;;7.03;2.72;;;;;;;-1.15;98.15;102554.22;4917882;29;20138;-79
2022/03/06 05:21:08;;;;;;;5.95;2.60;;;;;;;-1.21;98.18;102548.28;4949528;28;20035;-81
2022/03/06 05:23:34;;;;;;;5.40;2.60;;;;;;;-1.24;97.83;102543.19;4933163;29;20047;-80
2022/03/06 05:25:59;;;;;;;6.00;2.80;;;;;;;-1.21;98.31;102547.44;4921517;29;20171;-79
2022/03/06 05:28:28;;;;;;;6.63;2.60;;;;;;;-1.18;98.25;102542.25;4949267;29;20054;-77
2022/03/06 05:30:54;;;;;;;7.32;2.65;;;;;;;-1.14;97.87;102550.78;4933594;29;20048;-78
2022/03/06 05:33:19;;;;;;;8.38;2.45;;;;;;;-1.19;99.21;102541.41;4918368;29;20411;-79
2022/03/06 05:35:46;;;;;;;5.07;2.30;;;;;;;-1.24;98.32;102542.34;4919612;29;20074;-79
2022/03/06 05:38:12;;;;;;;6.05;2.35;;;;;;;-1.21;98.22;102547.44;4932620;29;20173;-79
2022/03/06 05:40:37;;;;;;;8.85;2.60;;;;;;;-1.18;98.67;102555.13;4949145;29;20461;-77
2022/03/06 05:43:03;;;;;;;5.63;2.25;;;;;;;-1.14;97.93;102546.47;4948569;29;20038;-78
2022/03/06 05:45:29;;;;;;;4.00;2.03;;;;;;;-1.25;97.67;102526.03;4905184;29;20040;-78
2022/03/06 05:47:55;;;;;;;4.53;2.60;;;;;;;-1.12;97.46;102552.44;4934614;29;20067;-79
2022/03/06 05:50:20;;;;;;;6.53;2.45;;;;;;;-1.21;97.28;102544.88;4948259;29;20502;-79
2022/03/06 05:52:48;;;;;;;4.68;2.22;;;;;;;-1.15;97.65;102549.91;4932259;28;20042;-79
2022/03/06 05:55:14;;;;;;;5.90;2.55;;;;;;;-1.11;97.24;102551.56;4916744;29;20090;-78
2022/03/06 05:57:40;;;;;;;4.28;2.17;;;;;;;-1.07;97.37;102562.66;4926554;29;20043;-79
2022/03/06 06:00:08;;;;;;;2.75;2.10;;;;;;;-1.19;96.49;102543.09;4940528;29;20042;-79
2022/03/06 06:02:38;;;;;;;6.18;2.65;;;;;;;-1.17;97.06;102551.66;4955482;28;20047;-79
2022/03/06 06:05:08;;;;;;;4.05;2.38;;;;;;;-1.14;97.62;102568.78;4932560;28;20035;-79
2022/03/06 06:07:34;;;;;;;9.05;2.70;;;;;;;-1.15;97.79;102560.19;4941321;29;20035;-79
2022/03/06 06:10:00;;;;;;;4.22;2.47;;;;;;;-1.14;96.83;102561.06;4932321;29;20853;-80
2022/03/06 06:12:26;;;;;;;3.72;2.17;;;;;;;-1.10;97.05;102562.72;4953218;29;20032;-78
2022/03/06 06:14:53;;;;;;;4.53;2.35;;;;;;;-1.08;97.65;102576.41;4928617;29;20094;-79
2022/03/06 06:17:18;;;;;;;5.13;2.17;;;;;;;-1.05;96.94;102577.22;4938385;29;20504;-79
2022/03/06 06:19:44;;;;;;;10.00;2.78;;;;;;;-1.08;95.96;102574.69;4922448;29;20122;-78
2022/03/06 06:22:09;;;;;;;3.88;2.22;;;;;;;-0.96;94.40;102572.75;4937640;29;20505;-79
2022/03/06 06:24:35;;;;;;;6.18;2.35;;;;;;;-0.98;95.65;102577.94;4937952;29;20036;-79
2022/03/06 06:27:01;;;;;;;7.70;2.45;;;;;;;-1.00;96.35;102578.00;4923141;29;20043;-78
2022/03/06 06:29:27;;;;;;;4.07;2.25;;;;;;;-0.97;95.55;102577.06;4905720;29;20036;-79
2022/03/06 06:31:53;;;;;;;2.95;2.10;;;;;;;-1.03;98.25;102566.88;4956406;28;20070;-78
2022/03/06 06:34:20;;;;;;;7.25;2.38;;;;;;;-0.97;97.22;102584.81;4942513;29;20429;-81
2022/03/06 06:36:48;;;;;;;4.32;2.28;;;;;;;-0.98;98.31;102581.38;4921066;29;20044;-79
2022/03/06 06:39:14;;;;;;;4.15;2.38;;;;;;;-0.93;97.38;102583.88;4937372;29;20150;-78
2022/03/06 06:41:41;;;;;;;7.00;2.70;;;;;;;-0.86;96.90;102597.50;4921100;29;20040;-79
2022/03/06 06:44:08;;;;;;;6.43;2.88;;;;;;;-0.81;95.08;102593.09;4925137;29;20103;-80
2022/03/06 06:46:34;;;;;;;4.45;2.15;;;;;;;-0.80;95.49;102608.53;4934842;29;20091;-79
2022/03/06 06:49:00;;;;;;;4.60;2.25;;;;;;;-0.82;95.05;102594.00;4933441;29;20078;-79
2022/03/06 06:51:27;;;;;;;6.63;2.63;;;;;;;-0.74;93.52;102599.84;4934983;28;20035;-81
2022/03/06 06:53:53;;;;;;;6.10;2.88;;;;;;;-0.69;94.05;102589.47;4951814;28;20027;-80
2022/03/06 06:56:19;;;;;;;7.35;2.95;;;;;;;-0.65;91.92;102593.69;4934919;29;20070;-80
2022/03/06 06:58:44;;;;;;;3.63;2.40;;;;;;;-0.64;91.76;102588.50;4923630;28;20151;-81
2022/03/06 07:01:10;;;;;;;4.50;2.47;;;;;;;-0.53;92.40;102598.59;4919361;28;20098;-79
2022/03/06 07:03:36;;;;;;;4.63;2.60;;;;;;;-0.45;90.24;102596.72;4950806;29;20558;-80
2022/03/06 07:06:01;;;;;;;4.25;2.28;;;;;;;-0.48;90.64;102577.88;4950775;29;20086;-78
2022/03/06 07:08:27;;;;;;;9.55;2.80;;;;;;;-0.40;91.68;102587.19;4917931;29;20126;-80
2022/03/06 07:10:53;;;;;;;5.68;2.22;;;;;;;-0.33;92.08;102607.69;4925132;29;20032;-80
2022/03/06 07:13:18;;;;;;;7.35;3.03;;;;;;;-0.28;89.58;102609.28;4910024;29;20486;-80
2022/03/06 07:15:44;;;;;;;3.63;2.55;;;;;;;-0.23;90.42;102620.38;4932993;29;20047;-80
2022/03/06 07:18:09;;;;;;;3.13;2.70;;;;;;;-0.22;89.78;102622.06;4931231;29;20040;-80
2022/03/06 07:20:35;;;;;;;4.75;3.05;;;;;;;-0.14;89.09;102624.47;4920264;29;20039;-79
2022/03/06 07:23:00;;;;;;;7.38;3.00;;;;;;;-0.08;89.58;102611.44;4913048;29;20050;-79
2022/03/06 07:25:26;;;;;;;4.68;2.80;;;;;;;-0.05;88.31;102620.88;4932603;29;20506;-78
2022/03/06 07:27:52;;;;;;;10.77;2.95;;;;;;;0.02;85.82;102621.56;4948713;29;20062;-81
2022/03/06 07:30:18;;;;;;;4.72;2.72;;;;;;;-0.01;85.04;102619.91;4935395;29;20422;-80
2022/03/06 07:32:52;;;;;;;6.20;2.50;;;;;;;0.07;86.71;102619.75;4948800;28;20039;-79
2022/03/06 07:35:19;;;;;;;4.60;2.70;;;;;;;0.11;84.92;102621.38;4933025;28;20051;-80
2022/03/06 07:37:45;;;;;;;4.00;2.60;;;;;;;0.15;84.52;102628.16;4929148;28;20106;-78
2022/03/06 07:40:13;;;;;;;7.88;2.17;;;;;;;0.22;84.82;102632.31;4932240;29;20040;-78
2022/03/06 07:42:39;;;;;;;7.25;2.80;;;;;;;0.32;81.95;102635.53;4932900;29;20042;-80
2022/03/06 07:45:05;;;;;;;3.53;2.35;;;;;;;0.35;83.25;102632.91;4935124;29;20039;-79
2022/03/06 07:47:30;;;;;;;4.85;2.78;;;;;;;0.40;84.62;102628.50;4918642;29;20042;-78
2022/03/06 07:49:56;;;;;;;4.07;2.22;;;;;;;0.46;82.10;102632.69;4915582;29;20047;-80
2022/03/06 07:52:22;;;;;;;4.65;2.97;;;;;;;0.48;79.17;102630.91;4933260;28;20378;-80
2022/03/06 07:54:47;;;;;;;6.13;2.72;;;;;;;0.51;77.95;102617.91;4940683;28;20510;-79
2022/03/06 07:57:13;;;;;;;3.67;2.55;;;;;;;0.56;78.83;102636.72;4932869;29;20036;-80
2022/03/06 07:59:38;;;;;;;5.75;2.67;;;;;;;0.53;78.46;102619.59;4920883;29;20043;-79
2022/03/06 08:02:04;;;;;;;6.18;2.75;;;;;;;0.75;78.56;102635.44;4930406;28;20036;-79
2022/03/06 08:04:30;;;;;;;5.43;2.95;;;;;;;0.76;77.71;102631.13;4948542;29;20035;-80
2022/03/06 08:06:55;;;;;;;5.45;3.10;;;;;;;0.86;75.47;102629.16;4944186;29;20036;-80
2022/03/06 08:09:21;;;;;;;8.13;3.38;;;;;;;0.88;75.78;102629.97;4940093;29;20386;-79
2022/03/06 08:11:46;;;;;;;6.03;2.92;;;;;;;0.90;76.61;102618.69;4949710;28;20036;-80
2022/03/06 08:14:12;;;;;;;7.88;3.00;;;;;;;1.04;75.37;102626.13;4902271;29;1046814;-79
2022/03/06 08:16:38;;;;;;;6.45;2.70;;;;;;;1.11;73.76;102632.84;4918524;29;20040;-79
2022/03/06 08:19:04;;;;;;;3.45;2.30;;;;;;;1.25;73.39;102631.63;4934465;29;20498;-80
2022/03/06 08:21:30;;;;;;;7.45;2.63;;;;;;;1.07;71.14;102632.94;4931466;29;20421;-81
2022/03/06 08:23:56;;;;;;;3.60;2.40;;;;;;;1.08;72.63;102640.66;4929739;29;20051;-79
2022/03/06 08:26:23;;;;;;;7.88;2.90;;;;;;;1.10;72.46;102656.13;4913487;29;20874;-79
2022/03/06 08:28:50;;;;;;;5.30;2.85;;;;;;;1.21;72.07;102646.38;4948556;28;20098;-81
2022/03/06 08:31:15;;;;;;;4.10;2.67;;;;;;;1.18;72.25;102651.59;4949243;29;20413;-80
2022/03/06 08:33:41;;;;;;;4.13;2.25;;;;;;;1.23;70.51;102649.75;4932819;28;20043;-80
2022/03/06 08:36:06;;;;;;;3.25;2.10;;;;;;;1.30;71.33;102647.84;4932771;29;20043;-79
2022/03/06 08:38:32;;;;;;;5.40;2.75;;;;;;;1.18;71.00;102646.44;4933748;29;20103;-80
2022/03/06 08:40:58;;;;;;;8.43;2.40;;;;;;;1.11;70.85;102645.75;4949815;28;20036;-82
2022/03/06 08:43:23;;;;;;;3.95;2.10;;;;;;;1.06;70.87;102652.75;4933640;29;20546;-81
2022/03/06 08:45:49;;;;;;;3.72;2.53;;;;;;;0.84;72.15;102649.84;4938974;29;20474;-80
2022/03/06 08:48:14;;;;;;;4.47;2.10;;;;;;;0.71;70.50;102638.94;4949069;28;20063;-82
2022/03/06 08:50:40;;;;;;;4.13;2.25;;;;;;;0.90;70.78;102643.69;4949989;29;20686;-80
2022/03/06 08:53:06;;;;;;;3.47;1.88;;;;;;;1.03;70.24;102652.00;4914306;29;20070;-81
2022/03/06 08:55:32;;;;;;;3.25;2.00;;;;;;;1.28;70.06;102647.03;4925897;29;20038;-80
2022/03/06 08:57:58;;;;;;;4.07;2.20;;;;;;;1.42;68.29;102651.88;4918057;29;20035;-79
2022/03/06 09:00:24;;;;;;;4.78;2.03;;;;;;;1.59;68.17;102651.41;4953528;28;20512;-80
2022/03/06 09:02:49;;;;;;;4.88;2.22;;;;;;;1.52;68.13;102640.38;4920663;29;20027;-79
2022/03/06 09:05:15;;;;;;;3.28;1.80;;;;;;;1.38;67.00;102645.94;4931234;28;20102;-81
2022/03/06 09:07:40;;;;;;;4.05;1.80;;;;;;;1.45;67.86;102639.72;4940975;29;20043;-80
2022/03/06 09:10:06;;;;;;;4.78;1.95;;;;;;;1.68;66.22;102646.84;4935811;29;20046;-78
2022/03/06 09:12:32;;;;;;;4.00;1.90;;;;;;;1.73;67.21;102631.16;4948637;29;20039;-80
2022/03/06 09:14:58;;;;;;;5.80;2.13;;;;;;;1.80;65.30;102640.47;4948201;29;20115;-80
2022/03/06 09:17:24;;;;;;;3.67;1.40;;;;;;;1.88;65.50;102632.47;4924263;29;20051;-81
2022/03/06 09:19:49;;;;;;;6.30;1.88;;;;;;;2.06;64.98;102634.53;4940926;29;20032;-80
2022/03/06 09:22:15;;;;;;;4.75;1.50;;;;;;;2.11;64.69;102637.84;4931900;29;20044;-82
2022/03/06 09:24:41;;;;;;;3.05;1.48;;;;;;;2.23;64.07;102648.75;4937546;29;20040;-80
2022/03/06 09:27:06;;;;;;;4.55;1.38;;;;;;;1.95;61.84;102631.41;4926845;29;20047;-80
2022/03/06 09:29:32;;;;;;;2.05;0.98;;;;;;;2.07;61.80;102636.25;4950491;28;20039;-80
2022/03/06 09:31:57;;;;;;;4.50;1.48;;;;;;;2.23;61.88;102652.16;4935495;29;20451;-80
2022/03/06 09:34:23;;;;;;;1.83;1.38;;;;;;;2.29;61.08;102633.00;4917370;29;20487;-80
2022/03/06 09:36:48;;;;;;;2.33;1.55;;;;;;;2.28;61.51;102646.84;4930310;29;20099;-80
2022/03/06 09:39:14;;;;;;;4.13;1.58;;;;;;;2.36;61.06;102652.66;4914992;29;20036;-79
2022/03/06 09:41:40;;;;;;;4.13;1.67;;;;;;;2.50;61.13;102654.81;4924866;29;20482;-80
2022/03/06 09:44:13;;;;;;;4.07;1.35;;;;;;;2.49;59.73;102653.13;4929915;29;20040;-80
2022/03/06 09:46:40;;;;;;;3.15;1.50;;;;;;;2.26;59.97;102646.91;4924373;29;20031;-80
2022/03/06 09:49:07;;;;;;;4.30;1.50;;;;;;;2.41;60.04;102644.72;4927106;29;20031;-80
2022/03/06 09:51:33;;;;;;;2.35;1.70;;;;;;;2.58;61.48;102645.06;4918295;29;20522;-80
2022/03/06 09:53:59;;;;;;;3.53;1.58;;;;;;;2.72;59.12;102647.22;4933535;29;20581;-81
2022/03/06 09:56:25;;;;;;;3.88;1.83;;;;;;;2.67;58.84;102664.66;4934065;29;20035;-80
2022/03/06 09:58:50;;;;;;;4.07;1.85;;;;;;;2.51;59.88;102654.78;4920893;29;20032;-80
2022/03/06 10:01:16;;;;;;;5.22;1.65;;;;;;;2.52;60.84;102651.28;4918882;29;20058;-80
2022/03/06 10:03:42;;;;;;;3.60;1.65;;;;;;;2.73;61.38;102662.72;4949765;29;20028;-80
2022/03/06 10:06:11;;;;;;;2.78;1.70;;;;;;;2.84;58.72;102661.53;4934260;29;20043;-80
2022/03/06 10:08:36;;;;;;;3.60;1.60;;;;;;;2.86;60.07;102659.72;4950332;29;20497;-80
2022/03/06 10:11:12;;;;;;;4.75;1.90;;;;;;;3.02;59.26;102660.94;4928888;29;20214;-80
2022/03/06 10:13:43;;;;;;;3.30;1.60;;;;;;;3.27;57.81;102660.94;4932257;29;20047;-80
2022/03/06 10:16:15;;;;;;;3.60;1.70;;;;;;;3.37;58.28;102656.31;4916325;29;20683;-81
2022/03/06 10:18:48;;;;;;;4.13;1.70;;;;;;;3.73;57.13;102661.13;4950061;29;20402;-79
2022/03/06 10:21:18;;;;;;;4.72;1.88;;;;;;;3.69;56.15;102669.88;4938073;29;20040;-80
2022/03/06 10:23:46;;;;;;;4.65;2.20;;;;;;;3.91;57.28;102669.97;4916209;29;20036;-81
2022/03/06 10:26:15;;;;;;;5.18;1.90;;;;;;;3.90;54.85;102676.91;4901461;29;20042;-80
2022/03/06 10:28:49;;;;;;;3.42;1.77;;;;;;;3.69;55.63;102668.16;4920771;29;20031;-80
2022/03/06 10:31:17;;;;;;;6.30;2.08;;;;;;;3.61;57.02;102662.38;4918995;29;20134;-79
2022/03/06 10:34:07;;;;;;;6.65;2.22;;;;;;;3.44;58.81;102672.50;4948840;29;20063;-80
2022/03/06 10:36:37;;;;;;;4.22;1.70;;;;;;;2.95;56.56;102667.22;4922768;29;20159;-79
2022/03/06 10:39:09;;;;;;;3.10;2.13;;;;;;;2.64;59.74;102672.53;4935995;29;20056;-80
2022/03/06 10:41:38;;;;;;;3.83;1.80;;;;;;;2.33;58.51;102657.91;4946977;29;20070;-79
2022/03/06 10:44:05;;;;;;;6.00;1.92;;;;;;;2.37;60.05;102656.91;4900441;29;20486;-78
2022/03/06 10:46:33;;;;;;;4.28;1.73;;;;;;;2.80;58.19;102652.16;4935205;29;20031;-80
2022/03/06 10:49:16;;;;;;;4.95;1.95;;;;;;;2.86;58.43;102647.63;4909818;29;20135;-79
2022/03/06 10:51:44;;;;;;;3.97;1.83;;;;;;;3.26;57.55;102650.66;4928905;29;20122;-78
2022/03/06 10:54:13;;;;;;;3.50;1.95;;;;;;;3.41;57.03;102659.63;4926232;29;20036;-78
2022/03/06 10:56:39;;;;;;;3.33;1.70;;;;;;;3.54;56.15;102655.69;4920436;29;20063;-80
2022/03/06 10:59:06;;;;;;;5.90;1.80;;;;;;;3.66;56.64;102657.03;4947894;29;20506;-80
2022/03/06 11:01:33;;;;;;;9.13;1.98;;;;;;;3.74;55.81;102648.97;4927508;29;20412;-78
2022/03/06 11:04:02;;;;;;;4.57;1.90;;;;;;;4.07;55.27;102652.09;4921556;29;20048;-78
2022/03/06 11:06:29;;;;;;;3.72;2.20;;;;;;;3.97;55.65;102653.31;4936601;29;20040;-78
2022/03/06 11:08:56;;;;;;;5.55;1.75;;;;;;;4.15;56.71;102644.84;4919141;29;20036;-78
2022/03/06 11:11:21;;;;;;;2.92;1.88;;;;;;;4.11;56.21;102653.66;4942114;29;20043;-78
2022/03/06 11:13:47;;;;;;;3.20;2.05;;;;;;;4.16;56.77;102641.31;4936159;29;20043;-78
2022/03/06 11:16:13;;;;;;;5.10;2.17;;;;;;;3.77;54.49;102654.03;4938936;29;20046;-76
2022/03/06 11:18:39;;;;;;;4.22;1.90;;;;;;;4.25;58.70;102645.34;4955860;29;20091;-77
2022/03/06 11:21:06;;;;;;;5.57;2.10;;;;;;;4.23;55.27;102644.56;4937749;29;20032;-80
2022/03/06 11:23:38;;;;;;;4.05;2.10;;;;;;;4.14;55.98;102647.50;4935223;29;20086;-81